Terminal Aerodrome Forecast
Issued by NWS

Home | Current Version | Previous Version | Text Only | Print | Product List | Glossary Off
Versions: 1 2 3 4 5 6 7 8 9 10 11 12 13 14 15 16 17 18 19

539
FTUS43 KGRB 190532
TAFCWA
TAF
KCWA 190532Z 1906/2006 27005KT P6SM SCT004 SCT007
      TEMPO 1906/1909 3SM BR BKN004 BKN007
     FM190900 VRB03KT 2SM BR BKN006
      TEMPO 1909/1912 1/2SM FG VV002
     FM191400 VRB03KT 4SM BR FEW006 SCT200
     FM191500 27008KT P6SM SCT200
     FM200100 22004KT P6SM SKC
      AMD LTD TO CLD VIS AND WIND TIL 191100=

USA.gov is the U.S. government's official web portal to all federal, state and local government web resources and services.